Time;durP1;ratioP1;P1;durP2;ratioP2;P2;SDS_P1;SDS_P2;PMS_P1;PMS_P2;Temp;Humidity;BMP_temperature;BMP_pressure;BME280_temperature;BME280_humidity;BME280_pressure;Samples;Min_cycle;Max_cycle;Signal;HPM_P1;HPM_P2
2024/04/21 00:02:06;;;;;;;5.50;4.60;;;;;;;8.67;100.00;99012.41;5427018;26;20007;-72
2024/04/21 00:04:31;;;;;;;4.97;4.47;;;;;;;8.07;100.00;98971.47;5436930;26;20314;-69
2024/04/21 00:06:57;;;;;;;6.07;4.82;;;;;;;8.30;100.00;99028.94;5439974;26;20344;-70
2024/04/21 00:09:22;;;;;;;5.32;4.80;;;;;;;8.16;100.00;99054.69;5434401;26;20407;-69
2024/04/21 00:11:49;;;;;;;5.68;5.13;;;;;;;7.97;100.00;99081.47;5429409;26;19998;-70
2024/04/21 00:14:14;;;;;;;7.03;4.95;;;;;;;7.28;100.00;98965.66;5430382;26;20350;-70
2024/04/21 00:16:39;;;;;;;6.93;5.22;;;;;;;8.06;100.00;99034.81;5432018;26;20015;-68
2024/04/21 00:19:05;;;;;;;6.63;5.30;;;;;;;7.35;100.00;98994.13;5432386;26;20011;-70
2024/04/21 00:21:32;;;;;;;9.07;6.03;;;;;;;7.37;100.00;99010.06;5431059;26;20056;-68
2024/04/21 00:23:58;;;;;;;6.07;5.35;;;;;;;7.76;100.00;99054.34;5430262;26;20007;-70
2024/04/21 00:26:24;;;;;;;8.05;6.10;;;;;;;7.52;100.00;98992.72;5419148;26;20014;-70
2024/04/21 00:28:50;;;;;;;6.95;6.25;;;;;;;7.66;100.00;99071.50;5424615;26;20338;-71
2024/04/21 00:31:15;;;;;;;7.18;6.10;;;;;;;7.85;100.00;99085.22;5428085;26;20004;-70
2024/04/21 00:33:40;;;;;;;8.27;6.78;;;;;;;7.90;100.00;99083.34;5422116;26;20002;-69
2024/04/21 00:36:06;;;;;;;8.90;6.28;;;;;;;7.60;100.00;99030.41;5429796;26;20315;-69
2024/04/21 00:38:31;;;;;;;8.98;6.07;;;;;;;7.83;100.00;98993.38;5428911;26;20017;-69
2024/04/21 00:40:57;;;;;;;8.18;6.28;;;;;;;8.18;100.00;99095.94;5431486;26;20007;-69
2024/04/21 00:43:22;;;;;;;10.32;7.28;;;;;;;8.00;100.00;99088.16;5428861;26;20014;-69
2024/04/21 00:45:49;;;;;;;8.73;6.63;;;;;;;7.83;100.00;99083.59;5432297;26;19999;-70
2024/04/21 00:48:14;;;;;;;9.18;7.25;;;;;;;7.38;100.00;98977.16;5427103;26;20011;-69
2024/04/21 00:50:44;;;;;;;7.38;5.95;;;;;;;8.32;100.00;99058.38;5431087;26;20036;-68
2024/04/21 00:53:13;;;;;;;8.38;6.25;;;;;;;7.39;100.00;98892.03;5431251;26;20592;-68
2024/04/21 00:55:39;;;;;;;8.57;6.53;;;;;;;7.81;100.00;98987.53;5436141;26;22361;-71
2024/04/21 00:58:06;;;;;;;10.88;6.80;;;;;;;8.11;100.00;99064.13;5423821;26;20461;-69
2024/04/21 01:00:32;;;;;;;11.00;6.68;;;;;;;7.91;100.00;99015.88;5428444;26;20039;-69
2024/04/21 01:02:57;;;;;;;9.63;6.70;;;;;;;8.40;100.00;99060.66;5421315;26;20002;-70
2024/04/21 01:05:23;;;;;;;9.52;6.25;;;;;;;7.64;100.00;99002.44;5426391;26;20052;-69
2024/04/21 01:07:49;;;;;;;10.65;7.10;;;;;;;8.00;100.00;99086.44;5433207;26;20014;-70
2024/04/21 01:10:15;;;;;;;8.38;6.70;;;;;;;7.44;100.00;98950.84;5432683;26;20078;-68
2024/04/21 01:12:41;;;;;;;10.40;6.82;;;;;;;8.01;100.00;98974.22;5424982;26;20010;-69
2024/04/21 01:15:07;;;;;;;7.72;6.32;;;;;;;8.66;100.00;99033.56;5432621;26;20010;-69
2024/04/21 01:17:32;;;;;;;8.60;5.82;;;;;;;8.55;100.00;99075.34;5432150;26;20349;-68
2024/04/21 01:19:58;;;;;;;6.65;5.70;;;;;;;8.17;100.00;98972.81;5428268;26;20003;-69
2024/04/21 01:22:23;;;;;;;7.53;5.32;;;;;;;9.07;100.00;99069.25;5431248;26;20017;-69
2024/04/21 01:24:49;;;;;;;6.10;5.28;;;;;;;8.82;100.00;99023.69;5432975;26;20439;-70
2024/04/21 01:27:14;;;;;;;6.38;5.75;;;;;;;8.92;100.00;99080.75;5425485;26;20341;-69
2024/04/21 01:29:39;;;;;;;7.22;5.57;;;;;;;8.22;100.00;99076.44;5429573;26;20019;-69
2024/04/21 01:32:05;;;;;;;18.15;10.82;;;;;;;8.62;100.00;99082.66;5426070;26;20000;-70
2024/04/21 01:34:30;;;;;;;15.02;10.23;;;;;;;8.53;100.00;99092.28;5426581;26;20438;-70
2024/04/21 01:36:56;;;;;;;13.60;8.85;;;;;;;8.64;100.00;99085.97;5435104;26;20413;-69
2024/04/21 01:39:21;;;;;;;9.10;6.35;;;;;;;8.40;100.00;99104.53;5437246;26;20002;-73
2024/04/21 01:41:46;;;;;;;11.23;6.80;;;;;;;7.83;100.00;99043.13;5435227;26;19999;-69
2024/04/21 01:44:12;;;;;;;9.30;6.00;;;;;;;8.08;100.00;99135.09;5433585;26;20010;-72
2024/04/21 01:46:37;;;;;;;6.75;6.00;;;;;;;7.75;100.00;99037.47;5430784;26;20353;-70
2024/04/21 01:49:03;;;;;;;7.65;6.15;;;;;;;7.95;100.00;99133.81;5437647;26;20004;-69
2024/04/21 01:51:28;;;;;;;7.68;5.50;;;;;;;7.16;100.00;99046.91;5427929;26;20004;-69
2024/04/21 01:53:54;;;;;;;6.78;5.15;;;;;;;7.68;100.00;99094.22;5427123;26;20381;-69
2024/04/21 01:56:19;;;;;;;5.38;4.88;;;;;;;7.63;100.00;99133.97;5428801;26;20326;-69
2024/04/21 01:58:44;;;;;;;9.88;8.88;;;;;;;7.55;100.00;99108.91;5439664;26;20017;-69
2024/04/21 02:01:10;;;;;;;13.80;11.55;;;;;;;7.46;100.00;99053.59;5430462;26;20455;-69
2024/04/21 02:03:35;;;;;;;8.65;7.60;;;;;;;7.53;100.00;99064.31;5424940;26;20000;-69
2024/04/21 02:06:00;;;;;;;6.25;5.47;;;;;;;7.46;100.00;99043.47;5439628;26;20013;-69
2024/04/21 02:08:26;;;;;;;5.55;4.95;;;;;;;7.95;100.00;99107.69;5427791;26;20380;-69
2024/04/21 02:10:51;;;;;;;6.72;5.35;;;;;;;7.83;100.00;99083.59;5426696;26;20035;-69
2024/04/21 02:13:17;;;;;;;7.38;5.75;;;;;;;7.06;100.00;99016.88;5425713;26;20052;-69
2024/04/21 02:15:49;;;;;;;6.55;5.75;;;;;;;7.89;100.00;99083.41;5423366;26;20327;-69
2024/04/21 02:18:14;;;;;;;6.32;5.63;;;;;;;8.03;100.00;99088.88;5430386;26;20043;-69
2024/04/21 02:20:42;;;;;;;7.88;5.55;;;;;;;8.40;100.00;99086.81;5431280;26;20437;-69
2024/04/21 02:23:07;;;;;;;8.02;5.90;;;;;;;7.52;100.00;98990.19;5430615;26;20018;-69
2024/04/21 02:25:33;;;;;;;8.77;5.70;;;;;;;7.53;100.00;98953.88;5432563;26;20332;-70
2024/04/21 02:27:58;;;;;;;7.68;6.03;;;;;;;8.34;100.00;99048.22;5440354;26;20083;-69
2024/04/21 02:30:24;;;;;;;6.72;6.03;;;;;;;7.87;100.00;98959.50;5441090;26;20017;-68
2024/04/21 02:32:49;;;;;;;7.13;6.40;;;;;;;8.17;100.00;99027.66;5430533;26;20013;-69
2024/04/21 02:35:14;;;;;;;7.57;6.47;;;;;;;8.21;100.00;98965.94;5437385;26;20014;-70
2024/04/21 02:37:40;;;;;;;7.57;6.20;;;;;;;7.79;100.00;98953.03;5435226;26;20347;-70
2024/04/21 02:40:06;;;;;;;8.88;7.10;;;;;;;8.61;100.00;99054.88;5441078;26;20003;-70
2024/04/21 02:42:31;;;;;;;7.80;6.35;;;;;;;8.45;100.00;99046.97;5438932;26;19998;-70
2024/04/21 02:44:59;;;;;;;9.13;6.70;;;;;;;7.84;100.00;98989.16;5425000;26;20007;-72
2024/04/21 02:47:24;;;;;;;9.35;6.15;;;;;;;7.64;100.00;98896.22;5426611;26;20417;-70
2024/04/21 02:49:50;;;;;;;9.50;7.28;;;;;;;8.46;100.00;99091.66;5429671;26;20011;-69
2024/04/21 02:52:16;;;;;;;9.85;6.97;;;;;;;7.92;100.00;98986.34;5436684;26;19999;-69
2024/04/21 02:54:42;;;;;;;8.32;7.50;;;;;;;8.45;100.00;99084.13;5437431;26;20003;-69
2024/04/21 02:57:08;;;;;;;11.55;7.25;;;;;;;8.46;100.00;99027.53;5427181;26;20018;-71
2024/04/21 02:59:33;;;;;;;9.50;7.43;;;;;;;8.26;100.00;99085.63;5439456;26;20009;-69
2024/04/21 03:01:58;;;;;;;9.18;7.13;;;;;;;8.05;100.00;99000.22;5426507;26;20017;-70
2024/04/21 03:04:24;;;;;;;7.85;7.05;;;;;;;8.52;100.00;99076.25;5433506;26;20006;-69
2024/04/21 03:06:49;;;;;;;7.43;6.63;;;;;;;7.56;100.00;98975.72;5437248;26;20373;-69
2024/04/21 03:09:15;;;;;;;7.00;6.30;;;;;;;8.32;100.00;99090.50;5439311;26;20014;-69
2024/04/21 03:11:40;;;;;;;7.25;6.40;;;;;;;8.08;100.00;99078.59;5428659;26;20007;-70
2024/04/21 03:14:06;;;;;;;8.15;7.15;;;;;;;7.74;100.00;99106.66;5427905;26;20072;-70
2024/04/21 03:16:31;;;;;;;9.07;7.47;;;;;;;7.74;100.00;99078.84;5433042;26;20022;-69
2024/04/21 03:18:57;;;;;;;8.02;7.00;;;;;;;7.83;100.00;99102.16;5429346;26;20032;-69
2024/04/21 03:21:22;;;;;;;7.00;6.30;;;;;;;6.93;100.00;98999.56;5418833;26;20014;-70
2024/04/21 03:23:48;;;;;;;7.90;7.10;;;;;;;7.42;100.00;99127.88;5426842;26;21280;-69
2024/04/21 03:26:13;;;;;;;8.80;6.88;;;;;;;7.06;100.00;99037.09;5434420;26;20007;-70
2024/04/21 03:28:38;;;;;;;9.13;7.40;;;;;;;7.32;100.00;99113.00;5431160;26;20003;-69
2024/04/21 03:31:04;;;;;;;8.82;7.43;;;;;;;6.07;100.00;98935.56;5428666;26;20011;-70
2024/04/21 03:33:29;;;;;;;8.73;7.75;;;;;;;6.82;100.00;99074.81;5433846;26;20014;-73
2024/04/21 03:36:04;;;;;;;10.77;8.23;;;;;;;7.33;100.00;99102.84;5435631;26;20333;-68
2024/04/21 03:38:30;;;;;;;8.73;7.68;;;;;;;7.06;100.00;99015.19;5429839;26;20059;-68
2024/04/21 03:40:56;;;;;;;9.18;8.27;;;;;;;7.53;100.00;99112.34;5424085;26;20003;-69
2024/04/21 03:43:21;;;;;;;9.35;8.35;;;;;;;7.67;100.00;99116.13;5422808;26;20326;-69
2024/04/21 03:45:47;;;;;;;9.80;8.30;;;;;;;7.76;100.00;99089.75;5428681;26;20043;-69
2024/04/21 03:48:12;;;;;;;12.40;9.23;;;;;;;7.47;100.00;99133.59;5421443;26;20088;-69
2024/04/21 03:50:38;;;;;;;12.10;9.05;;;;;;;7.56;100.00;99114.81;5425056;26;20400;-68
2024/04/21 03:53:04;;;;;;;13.88;9.80;;;;;;;7.20;100.00;99071.22;5429148;26;20014;-68
2024/04/21 03:55:30;;;;;;;13.88;9.90;;;;;;;7.12;100.00;99044.50;5424033;26;20338;-69
2024/04/21 03:57:55;;;;;;;12.73;10.93;;;;;;;6.71;100.00;99036.44;5429614;26;20434;-69
2024/04/21 04:00:21;;;;;;;12.45;9.70;;;;;;;7.18;100.00;99052.75;5432377;26;20010;-69
2024/04/21 04:02:46;;;;;;;9.35;8.43;;;;;;;7.76;100.00;99118.38;5432357;26;20093;-69
2024/04/21 04:05:11;;;;;;;10.18;8.50;;;;;;;7.15;100.00;99039.38;5432876;26;20000;-70
2024/04/21 04:07:37;;;;;;;10.27;9.20;;;;;;;6.68;100.00;99060.91;5421963;26;20437;-69
2024/04/21 04:10:03;;;;;;;9.77;8.77;;;;;;;7.01;100.00;99145.91;5428880;26;19999;-70
2024/04/21 04:12:28;;;;;;;9.82;8.82;;;;;;;6.64;100.00;99055.13;5431986;26;20342;-69
2024/04/21 04:14:54;;;;;;;9.43;8.35;;;;;;;7.15;100.00;99130.34;5428503;26;20113;-69
2024/04/21 04:17:20;;;;;;;11.52;8.98;;;;;;;7.10;100.00;99155.72;5428386;26;20014;-69
2024/04/21 04:19:45;;;;;;;9.57;8.52;;;;;;;6.57;100.00;99075.53;5429652;26;20002;-69
2024/04/21 04:22:11;;;;;;;9.98;8.63;;;;;;;7.45;100.00;99169.91;5436664;26;20011;-69
2024/04/21 04:24:37;;;;;;;12.15;9.43;;;;;;;7.43;100.00;99195.22;5424437;26;20048;-69
2024/04/21 04:27:02;;;;;;;11.75;10.52;;;;;;;7.00;100.00;99139.16;5441631;26;20441;-69
2024/04/21 04:29:28;;;;;;;10.70;9.60;;;;;;;7.40;100.00;99222.31;5425532;26;20422;-68
2024/04/21 04:31:53;;;;;;;11.50;10.30;;;;;;;7.45;100.00;99205.31;5433860;26;19999;-69
2024/04/21 04:34:19;;;;;;;11.98;10.38;;;;;;;6.90;100.00;99127.66;5431532;26;20346;-69
2024/04/21 04:36:44;;;;;;;9.90;8.85;;;;;;;7.66;100.00;99240.97;5428910;26;20351;-69
2024/04/21 04:39:09;;;;;;;10.70;9.52;;;;;;;7.24;100.00;99142.72;5434933;26;20010;-69
2024/04/21 04:41:35;;;;;;;9.77;8.77;;;;;;;7.80;100.00;99212.75;5425323;26;20346;-70
2024/04/21 04:44:00;;;;;;;11.38;9.85;;;;;;;7.21;100.00;99147.88;5435043;26;20370;-68
2024/04/21 04:46:26;;;;;;;10.90;9.70;;;;;;;8.02;100.00;99240.75;5422821;26;19999;-69
2024/04/21 04:48:51;;;;;;;12.57;10.27;;;;;;;7.79;100.00;99163.84;5437456;26;20084;-71
2024/04/21 04:51:17;;;;;;;13.40;10.23;;;;;;;7.94;100.00;99278.94;5441086;26;20414;-69
2024/04/21 04:53:42;;;;;;;11.82;9.75;;;;;;;7.87;100.00;99264.81;5431240;26;20354;-69
2024/04/21 04:56:07;;;;;;;10.13;9.13;;;;;;;8.53;100.00;99218.94;5423821;26;20048;-69
2024/04/21 04:58:33;;;;;;;11.25;10.05;;;;;;;8.64;100.00;99240.50;5438318;26;20052;-70
2024/04/21 05:00:58;;;;;;;10.63;9.25;;;;;;;8.79;100.00;99218.09;5430962;26;20011;-69
2024/04/21 05:03:24;;;;;;;10.50;9.48;;;;;;;7.93;100.00;99130.53;5434510;26;20014;-68
2024/04/21 05:05:49;;;;;;;10.82;9.70;;;;;;;7.74;100.00;99142.88;5427618;26;20345;-67
2024/04/21 05:08:15;;;;;;;10.88;9.77;;;;;;;8.64;100.00;99199.97;5431383;26;20010;-68
2024/04/21 05:10:40;;;;;;;11.27;10.13;;;;;;;8.41;100.00;99230.28;5435914;26;20348;-68
2024/04/21 05:13:06;;;;;;;12.23;9.98;;;;;;;8.46;100.00;99089.13;5435098;26;20000;-68
2024/04/21 05:15:31;;;;;;;11.50;10.07;;;;;;;8.04;100.00;99115.00;5438362;26;20021;-68
2024/04/21 05:17:56;;;;;;;10.85;9.48;;;;;;;8.19;100.00;99102.69;5428558;26;20435;-67
2024/04/21 05:20:22;;;;;;;11.05;9.63;;;;;;;8.55;100.00;99185.09;5432504;26;20056;-68
2024/04/21 05:22:47;;;;;;;10.32;9.20;;;;;;;8.35;100.00;99088.69;5439679;26;20392;-69
2024/04/21 05:25:13;;;;;;;10.48;9.10;;;;;;;8.89;100.00;99085.94;5430493;26;20003;-70
2024/04/21 05:27:38;;;;;;;11.13;10.00;;;;;;;8.65;100.00;99172.94;5432068;26;20052;-69
2024/04/21 05:30:04;;;;;;;10.75;9.65;;;;;;;8.88;100.00;99154.41;5432609;26;20079;-69
2024/04/21 05:32:30;;;;;;;12.55;9.98;;;;;;;9.25;100.00;99129.44;5439516;26;20050;-69
2024/04/21 05:34:55;;;;;;;11.13;9.90;;;;;;;9.39;100.00;99132.28;5429583;26;20426;-69
2024/04/21 05:37:21;;;;;;;11.23;10.07;;;;;;;9.14;100.00;99137.41;5435248;26;20000;-68
2024/04/21 05:39:46;;;;;;;10.98;9.38;;;;;;;9.37;100.00;99098.53;5437545;26;20415;-69
2024/04/21 05:42:12;;;;;;;11.82;10.02;;;;;;;8.78;100.00;99012.00;5435179;26;20081;-69
2024/04/21 05:44:37;;;;;;;11.55;10.23;;;;;;;9.45;100.00;99124.44;5427057;26;20002;-69
2024/04/21 05:47:03;;;;;;;10.82;9.73;;;;;;;9.87;100.00;99082.19;5427393;26;20031;-69
2024/04/21 05:49:29;;;;;;;11.90;10.05;;;;;;;9.50;100.00;99034.63;5433408;26;19999;-69
2024/04/21 05:51:55;;;;;;;11.00;9.70;;;;;;;9.38;100.00;98942.94;5431034;26;19999;-69
2024/04/21 05:54:20;;;;;;;11.77;10.57;;;;;;;9.97;100.00;99057.25;5424216;26;20330;-68
2024/04/21 05:56:46;;;;;;;12.88;9.88;;;;;;;10.53;100.00;99060.03;5437020;26;20345;-69
2024/04/21 05:59:11;;;;;;;14.93;12.23;;;;;;;10.74;100.00;99090.44;5425986;26;20018;-70
2024/04/21 06:01:37;;;;;;;11.18;10.00;;;;;;;10.64;100.00;99038.34;5432244;26;20085;-70
2024/04/21 06:04:02;;;;;;;14.73;10.32;;;;;;;10.59;100.00;98970.81;5435351;26;20003;-69
2024/04/21 06:06:28;;;;;;;11.90;9.48;;;;;;;9.66;100.00;98907.13;5437040;26;20003;-70
2024/04/21 06:08:53;;;;;;;12.82;9.25;;;;;;;10.54;100.00;98927.03;5428125;26;20481;-70
2024/04/21 06:11:18;;;;;;;10.25;9.23;;;;;;;11.22;100.00;99014.50;5422605;26;20371;-69
2024/04/21 06:13:44;;;;;;;11.23;8.57;;;;;;;11.02;100.00;99029.03;5429037;26;20011;-70
2024/04/21 06:16:09;;;;;;;12.07;8.27;;;;;;;11.01;100.00;98941.72;5431082;26;20438;-73
2024/04/21 06:18:35;;;;;;;9.68;8.55;;;;;;;11.30;100.00;98956.47;5435634;26;20010;-70
2024/04/21 06:21:00;;;;;;;12.10;8.20;;;;;;;11.28;100.00;98965.91;5432880;26;20007;-70
2024/04/21 06:23:26;;;;;;;9.05;7.78;;;;;;;11.01;100.00;98938.38;5433053;26;20003;-69
2024/04/21 06:25:51;;;;;;;7.80;7.00;;;;;;;11.64;100.00;99018.47;5433602;26;20423;-70
2024/04/21 06:28:16;;;;;;;9.68;8.32;;;;;;;11.71;100.00;99024.94;5435975;26;20002;-69
2024/04/21 06:30:42;;;;;;;12.88;10.07;;;;;;;11.65;100.00;98959.84;5431537;26;20003;-69
2024/04/21 06:33:07;;;;;;;8.65;7.70;;;;;;;11.77;100.00;98983.91;5418524;26;20442;-73
2024/04/21 06:35:33;;;;;;;10.80;7.38;;;;;;;11.65;100.00;99007.38;5427804;26;20002;-69
2024/04/21 06:37:59;;;;;;;11.13;7.78;;;;;;;12.49;100.00;99089.03;5431440;26;20000;-69
2024/04/21 06:40:24;;;;;;;11.18;6.90;;;;;;;11.85;100.00;99032.75;5432875;26;20379;-69
2024/04/21 06:42:50;;;;;;;7.60;6.55;;;;;;;12.44;100.00;99129.22;5426419;26;20010;-68
2024/04/21 06:45:15;;;;;;;9.43;6.00;;;;;;;12.60;100.00;99117.34;5428607;26;20087;-72
2024/04/21 06:47:41;;;;;;;7.80;6.20;;;;;;;12.27;100.00;99124.94;5428058;26;20000;-70
2024/04/21 06:50:06;;;;;;;10.57;5.47;;;;;;;12.46;100.00;99096.84;5433785;26;20434;-70
2024/04/21 06:52:32;;;;;;;7.85;4.35;;;;;;;12.49;100.00;99115.34;5437878;26;20396;-69
2024/04/21 06:54:58;;;;;;;4.70;4.00;;;;;;;12.50;100.00;99108.53;5425478;26;20003;-70
2024/04/21 06:57:23;;;;;;;6.50;4.55;;;;;;;11.58;100.00;99111.25;5428616;26;20003;-69
2024/04/21 06:59:48;;;;;;;7.15;4.95;;;;;;;12.30;100.00;99081.44;5426843;26;20024;-68
2024/04/21 07:02:14;;;;;;;8.38;5.53;;;;;;;12.32;100.00;99094.13;5422347;26;20019;-69
2024/04/21 07:04:39;;;;;;;6.07;5.00;;;;;;;11.52;100.00;99057.25;5426582;26;20436;-69
2024/04/21 07:07:06;;;;;;;8.38;5.10;;;;;;;12.11;100.00;99142.69;5389705;26;1311662;-69
2024/04/21 07:09:32;;;;;;;8.80;5.38;;;;;;;11.76;100.00;99114.69;5428185;26;20012;-67
2024/04/21 07:11:58;;;;;;;9.77;4.80;;;;;;;11.72;100.00;99022.34;5418407;26;20077;-68
2024/04/21 07:14:23;;;;;;;5.85;4.30;;;;;;;12.03;100.00;99116.75;5426263;26;20012;-69
2024/04/21 07:16:48;;;;;;;6.97;5.25;;;;;;;11.95;100.00;99123.09;5428332;26;19999;-69
2024/04/21 07:19:14;;;;;;;7.05;5.40;;;;;;;11.18;100.00;99035.91;5424903;26;20007;-69
2024/04/21 07:21:39;;;;;;;9.63;5.28;;;;;;;11.42;100.00;98989.84;5433606;26;20451;-69
2024/04/21 07:24:05;;;;;;;6.05;5.32;;;;;;;11.45;100.00;99127.94;5438913;26;19999;-69
2024/04/21 07:26:30;;;;;;;10.70;5.72;;;;;;;11.27;100.00;99045.66;5435286;26;20008;-69
2024/04/21 07:28:56;;;;;;;7.20;4.88;;;;;;;11.47;100.00;99024.34;5434327;26;20503;-69
2024/04/21 07:31:21;;;;;;;8.63;4.80;;;;;;;11.52;100.00;99030.06;5446802;26;20009;-69
2024/04/21 07:33:46;;;;;;;7.22;5.03;;;;;;;11.65;100.00;99015.84;5439755;26;20004;-69
2024/04/21 07:36:12;;;;;;;7.40;5.40;;;;;;;12.00;100.00;99080.41;5432353;26;20022;-68
2024/04/21 07:38:37;;;;;;;7.05;5.57;;;;;;;11.72;100.00;99110.63;5418708;26;20383;-69
2024/04/21 07:41:03;;;;;;;6.20;5.60;;;;;;;11.99;100.00;99056.66;5427968;26;20155;-69
2024/04/21 07:43:28;;;;;;;7.65;5.07;;;;;;;12.06;100.00;99087.78;5430902;26;20056;-68
2024/04/21 07:45:54;;;;;;;6.03;4.97;;;;;;;11.36;100.00;99006.22;5426324;26;20007;-70
2024/04/21 07:48:19;;;;;;;7.30;4.90;;;;;;;12.02;100.00;99079.41;5428906;26;20344;-69
2024/04/21 07:50:45;;;;;;;4.95;4.45;;;;;;;11.92;100.00;99116.41;5433747;26;20034;-70
2024/04/21 07:53:10;;;;;;;7.22;6.05;;;;;;;11.73;100.00;99114.81;5431487;26;20023;-69
2024/04/21 07:55:36;;;;;;;5.75;5.13;;;;;;;12.00;100.00;99063.38;5427777;26;20003;-69
2024/04/21 07:58:01;;;;;;;5.53;4.93;;;;;;;11.86;100.00;99025.06;5433379;26;20003;-69
2024/04/21 08:00:27;;;;;;;8.18;5.97;;;;;;;12.44;100.00;99090.97;5426331;26;20013;-70
2024/04/21 08:02:53;;;;;;;7.25;5.70;;;;;;;12.22;100.00;99103.13;5434309;26;20004;-70
2024/04/21 08:05:18;;;;;;;7.05;5.63;;;;;;;12.33;100.00;99095.78;5428672;26;20004;-69
2024/04/21 08:07:44;;;;;;;13.85;10.05;;;;;;;12.50;100.00;99066.00;5426550;26;20053;-71
2024/04/21 08:10:09;;;;;;;7.88;5.80;;;;;;;12.74;100.00;99091.97;5423785;26;20003;-70
2024/04/21 08:12:34;;;;;;;7.63;6.10;;;;;;;12.22;100.00;99081.03;5431430;26;20035;-71
2024/04/21 08:15:05;;;;;;;6.75;6.00;;;;;;;12.57;100.00;99117.50;5428119;26;20042;-71
2024/04/21 08:17:33;;;;;;;6.60;5.43;;;;;;;13.18;100.00;99105.00;5429393;26;20428;-71
2024/04/21 08:19:59;;;;;;;9.57;5.20;;;;;;;13.52;100.00;99054.63;5408214;26;20067;-69
2024/04/21 08:22:24;;;;;;;7.07;5.60;;;;;;;13.46;100.00;99111.13;5421866;26;20391;-69
2024/04/21 08:24:49;;;;;;;7.88;5.35;;;;;;;13.55;100.00;99068.94;5428925;26;20398;-69
2024/04/21 08:27:15;;;;;;;6.60;5.35;;;;;;;13.54;100.00;99157.53;5437973;26;20013;-68
2024/04/21 08:29:40;;;;;;;5.47;4.78;;;;;;;14.08;100.00;99004.63;5428144;26;20010;-68
2024/04/21 08:32:06;;;;;;;6.75;5.38;;;;;;;13.88;100.00;99111.34;5422694;26;20014;-69
2024/04/21 08:34:32;;;;;;;6.70;5.47;;;;;;;14.16;100.00;99090.19;5435571;26;20000;-69
2024/04/21 08:36:58;;;;;;;5.72;4.82;;;;;;;13.71;100.00;99190.63;5427751;26;20010;-69
2024/04/21 08:39:23;;;;;;;6.03;4.63;;;;;;;13.76;100.00;99175.91;5436105;26;19999;-70
2024/04/21 08:41:49;;;;;;;4.57;4.18;;;;;;;14.42;100.00;99265.19;5436925;26;20004;-69
2024/04/21 08:44:14;;;;;;;7.57;5.30;;;;;;;14.14;100.00;99270.94;5425293;26;20012;-68
2024/04/21 08:46:42;;;;;;;5.80;5.20;;;;;;;13.86;100.00;99197.47;5417770;26;20044;-71
2024/04/21 08:49:08;;;;;;;8.35;6.00;;;;;;;14.24;100.00;99278.94;5430769;26;20013;-72
2024/04/21 08:51:38;;;;;;;6.40;5.30;;;;;;;14.10;100.00;99273.75;5431623;26;20027;-71
2024/04/21 08:54:04;;;;;;;10.10;8.25;;;;;;;14.06;100.00;99293.53;5426240;26;20429;-70
2024/04/21 08:56:31;;;;;;;10.55;7.18;;;;;;;14.00;100.00;99300.69;5420476;26;20068;-69
2024/04/21 08:58:56;;;;;;;6.43;4.90;;;;;;;13.53;100.00;99219.69;5421385;26;19999;-69
2024/04/21 09:01:22;;;;;;;7.40;4.90;;;;;;;13.30;100.00;99237.94;5432642;26;20011;-69
2024/04/21 09:03:52;;;;;;;6.43;5.65;;;;;;;13.00;100.00;99234.34;5430540;26;20002;-69
2024/04/21 09:06:23;;;;;;;8.45;6.32;;;;;;;13.73;100.00;99214.38;5430724;26;20003;-68
2024/04/21 09:08:49;;;;;;;7.63;5.32;;;;;;;14.53;100.00;99288.44;5426108;26;20010;-69
2024/04/21 09:11:15;;;;;;;5.10;4.55;;;;;;;13.67;100.00;99339.84;5433970;26;20079;-69
2024/04/21 09:13:40;;;;;;;7.35;4.63;;;;;;;13.66;100.00;99289.69;5428453;26;20031;-69
2024/04/21 09:16:09;;;;;;;5.20;4.35;;;;;;;13.68;100.00;99331.31;5425480;26;20011;-70
2024/04/21 09:18:35;;;;;;;5.55;4.70;;;;;;;13.31;100.00;99249.78;5420780;26;19999;-68
2024/04/21 09:21:00;;;;;;;4.95;4.40;;;;;;;13.63;100.00;99323.03;5428689;26;20015;-69
2024/04/21 09:23:26;;;;;;;5.00;4.50;;;;;;;13.13;100.00;99226.94;5432542;26;20421;-70
2024/04/21 09:25:51;;;;;;;6.95;4.80;;;;;;;13.88;100.00;99254.41;5438740;26;20345;-69
2024/04/21 09:28:17;;;;;;;5.35;4.55;;;;;;;13.44;100.00;99276.34;5416191;26;20000;-70
2024/04/21 09:30:42;;;;;;;5.32;4.50;;;;;;;13.94;100.00;99233.66;5430767;26;20014;-70
2024/04/21 09:33:08;;;;;;;7.35;4.85;;;;;;;13.69;100.00;99284.41;5434264;26;19999;-70
2024/04/21 09:35:36;;;;;;;5.00;4.50;;;;;;;13.62;100.00;99183.47;5433542;26;20007;-69
2024/04/21 09:38:02;;;;;;;7.32;4.18;;;;;;;14.03;100.00;99247.69;5440478;26;20022;-70
2024/04/21 09:40:28;;;;;;;4.75;4.20;;;;;;;13.82;100.00;99253.94;5430152;26;20004;-71
2024/04/21 09:42:54;;;;;;;4.63;4.13;;;;;;;13.51;100.00;99253.91;5427547;26;20003;-69
2024/04/21 09:45:20;;;;;;;4.78;4.20;;;;;;;12.97;100.00;99133.25;5425114;26;20049;-69
2024/04/21 09:47:46;;;;;;;4.28;3.63;;;;;;;13.20;100.00;99172.94;5430838;26;20003;-69
2024/04/21 09:50:12;;;;;;;4.80;3.80;;;;;;;13.26;100.00;99269.63;5431619;26;20018;-70
2024/04/21 09:52:38;;;;;;;4.90;3.63;;;;;;;13.60;100.00;99204.88;5430140;26;20011;-69
2024/04/21 09:55:04;;;;;;;5.45;3.97;;;;;;;13.18;100.00;99095.63;5426613;26;20017;-69
2024/04/21 09:57:33;;;;;;;4.32;3.92;;;;;;;13.52;100.00;99168.72;5435015;26;20003;-71
2024/04/21 10:00:02;;;;;;;4.85;3.53;;;;;;;14.28;100.00;99240.34;5426941;26;20003;-69
2024/04/21 10:02:43;;;;;;;5.95;3.97;;;;;;;13.93;100.00;99241.41;5433391;26;20030;-71
2024/04/21 10:05:15;;;;;;;3.53;3.22;;;;;;;13.23;100.00;99152.34;5430517;26;20010;-69
2024/04/21 10:07:43;;;;;;;3.97;3.50;;;;;;;13.80;100.00;99161.22;5426017;26;20073;-69
2024/04/21 10:10:11;;;;;;;3.83;3.40;;;;;;;14.02;100.00;99205.16;5428293;26;20341;-70
2024/04/21 10:12:38;;;;;;;5.57;3.78;;;;;;;14.41;100.00;99255.84;5433607;26;20003;-69
2024/04/21 10:15:09;;;;;;;3.80;3.40;;;;;;;14.00;100.00;99252.13;5423710;26;20017;-70
2024/04/21 10:17:35;;;;;;;3.95;3.55;;;;;;;13.62;100.00;99277.13;5430087;26;20003;-70
2024/04/21 10:20:06;;;;;;;3.50;3.20;;;;;;;13.56;100.00;99273.19;5433369;26;20022;-69
2024/04/21 10:22:35;;;;;;;3.50;3.15;;;;;;;13.75;100.00;99278.97;5430661;26;20007;-70
2024/04/21 10:25:04;;;;;;;3.00;2.70;;;;;;;13.68;100.00;99282.78;5434970;26;20011;-69
2024/04/21 10:27:30;;;;;;;3.92;2.80;;;;;;;13.70;100.00;99273.28;5429822;26;20011;-71
2024/04/21 10:29:55;;;;;;;3.95;3.10;;;;;;;13.02;100.00;99195.09;5437429;26;20000;-72
2024/04/21 10:32:25;;;;;;;3.30;2.67;;;;;;;13.50;100.00;99270.94;5435745;26;20010;-70
2024/04/21 10:34:51;;;;;;;3.00;2.70;;;;;;;13.34;100.00;99262.41;5430727;26;20000;-69
2024/04/21 10:37:24;;;;;;;2.67;2.45;;;;;;;13.63;100.00;99264.28;5430177;26;20449;-70
2024/04/21 10:40:01;;;;;;;4.35;2.70;;;;;;;13.43;100.00;99263.69;5433802;26;20006;-69
2024/04/21 10:42:32;;;;;;;5.07;3.03;;;;;;;13.54;100.00;99241.78;5428242;26;19998;-69
2024/04/21 10:44:57;;;;;;;3.55;2.30;;;;;;;13.49;100.00;99256.50;5437374;26;20017;-71
2024/04/21 10:47:23;;;;;;;3.63;2.28;;;;;;;13.58;100.00;99258.59;5438684;26;20355;-69
2024/04/21 10:49:48;;;;;;;3.72;2.40;;;;;;;13.18;100.00;99237.72;5434231;26;20014;-70
2024/04/21 10:52:14;;;;;;;2.60;2.33;;;;;;;13.26;100.00;99227.94;5436833;26;20338;-72
2024/04/21 10:54:39;;;;;;;3.72;2.70;;;;;;;13.64;100.00;99304.25;5435317;26;20352;-69
2024/04/21 10:57:05;;;;;;;3.78;2.40;;;;;;;13.77;100.00;99307.00;5424066;26;20827;-71
2024/04/21 10:59:32;;;;;;;4.22;2.97;;;;;;;13.76;100.00;99241.50;5426842;26;20003;-69
2024/04/21 11:01:57;;;;;;;2.90;2.53;;;;;;;13.33;100.00;99199.47;5432317;26;20010;-69
2024/04/21 11:04:22;;;;;;;3.50;2.60;;;;;;;13.88;100.00;99281.72;5432460;26;19999;-69
2024/04/21 11:06:48;;;;;;;3.60;2.90;;;;;;;14.17;100.00;99282.72;5430048;26;20073;-70
2024/04/21 11:09:15;;;;;;;3.38;2.53;;;;;;;13.49;100.00;99253.94;5430523;26;20015;-69
2024/04/21 11:11:41;;;;;;;4.18;3.10;;;;;;;14.45;100.00;99305.94;5434022;26;20003;-70
2024/04/21 11:14:06;;;;;;;3.83;2.80;;;;;;;14.00;100.00;99235.06;5437481;26;20359;-70
2024/04/21 11:16:32;;;;;;;3.10;2.60;;;;;;;14.49;100.00;99318.47;5434345;26;20002;-69
2024/04/21 11:18:58;;;;;;;3.70;3.28;;;;;;;14.31;100.00;99323.75;5439258;26;20000;-69
2024/04/21 11:21:24;;;;;;;2.95;2.63;;;;;;;14.14;100.00;99262.44;5440951;26;20034;-70